sensor_id;sensor_type;location;lat;lon;timestamp;P1;durP1;ratioP1;P2;durP2;ratioP2
9547;SDS011;4812;51.992;8.648;2022-09-04T00:02:00;10.57;;;9.70;;
9547;SDS011;4812;51.992;8.648;2022-09-04T00:04:35;10.83;;;10.13;;
9547;SDS011;4812;51.992;8.648;2022-09-04T00:07:13;10.33;;;9.63;;
9547;SDS011;4812;51.992;8.648;2022-09-04T00:09:47;11.10;;;10.40;;
9547;SDS011;4812;51.992;8.648;2022-09-04T00:12:21;11.03;;;10.33;;
9547;SDS011;4812;51.992;8.648;2022-09-04T00:14:53;11.90;;;10.90;;
9547;SDS011;4812;51.992;8.648;2022-09-04T00:17:27;11.50;;;10.70;;
9547;SDS011;4812;51.992;8.648;2022-09-04T00:19:59;11.80;;;10.60;;
9547;SDS011;4812;51.992;8.648;2022-09-04T00:22:29;11.27;;;10.40;;
9547;SDS011;4812;51.992;8.648;2022-09-04T00:25:02;11.63;;;10.60;;
9547;SDS011;4812;51.992;8.648;2022-09-04T00:27:35;11.70;;;11.00;;
9547;SDS011;4812;51.992;8.648;2022-09-04T00:30:10;11.80;;;10.90;;
9547;SDS011;4812;51.992;8.648;2022-09-04T00:32:43;12.67;;;11.70;;
9547;SDS011;4812;51.992;8.648;2022-09-04T00:35:14;12.67;;;11.83;;
9547;SDS011;4812;51.992;8.648;2022-09-04T00:37:45;11.97;;;11.23;;
9547;SDS011;4812;51.992;8.648;2022-09-04T00:40:16;11.90;;;11.20;;
9547;SDS011;4812;51.992;8.648;2022-09-04T00:43:05;12.00;;;11.20;;
9547;SDS011;4812;51.992;8.648;2022-09-04T00:45:45;11.73;;;11.03;;
9547;SDS011;4812;51.992;8.648;2022-09-04T00:48:28;11.80;;;11.10;;
9547;SDS011;4812;51.992;8.648;2022-09-04T00:51:09;11.87;;;11.17;;
9547;SDS011;4812;51.992;8.648;2022-09-04T00:59:44;12.07;;;11.37;;
9547;SDS011;4812;51.992;8.648;2022-09-04T01:02:22;12.50;;;11.70;;
9547;SDS011;4812;51.992;8.648;2022-09-04T01:04:55;12.30;;;11.50;;
9547;SDS011;4812;51.992;8.648;2022-09-04T01:10:29;12.63;;;11.80;;
9547;SDS011;4812;51.992;8.648;2022-09-04T01:13:04;12.77;;;11.90;;
9547;SDS011;4812;51.992;8.648;2022-09-04T01:15:35;12.63;;;11.83;;
9547;SDS011;4812;51.992;8.648;2022-09-04T01:18:07;12.73;;;11.77;;
9547;SDS011;4812;51.992;8.648;2022-09-04T01:20:51;12.80;;;11.97;;
9547;SDS011;4812;51.992;8.648;2022-09-04T01:23:32;12.30;;;11.60;;
9547;SDS011;4812;51.992;8.648;2022-09-04T01:26:08;12.13;;;11.33;;
9547;SDS011;4812;51.992;8.648;2022-09-04T01:28:41;12.30;;;11.20;;
9547;SDS011;4812;51.992;8.648;2022-09-04T01:31:16;12.23;;;11.53;;
9547;SDS011;4812;51.992;8.648;2022-09-04T01:33:50;11.90;;;11.00;;
9547;SDS011;4812;51.992;8.648;2022-09-04T01:36:24;11.90;;;11.20;;
9547;SDS011;4812;51.992;8.648;2022-09-04T01:38:59;12.20;;;11.40;;
9547;SDS011;4812;51.992;8.648;2022-09-04T01:41:30;12.43;;;11.53;;
9547;SDS011;4812;51.992;8.648;2022-09-04T01:44:04;12.70;;;11.60;;
9547;SDS011;4812;51.992;8.648;2022-09-04T01:46:40;12.70;;;11.70;;
9547;SDS011;4812;51.992;8.648;2022-09-04T01:49:14;12.63;;;11.73;;
9547;SDS011;4812;51.992;8.648;2022-09-04T01:51:55;12.40;;;11.60;;
9547;SDS011;4812;51.992;8.648;2022-09-04T01:54:31;11.70;;;11.00;;
9547;SDS011;4812;51.992;8.648;2022-09-04T01:57:08;11.70;;;10.90;;
9547;SDS011;4812;51.992;8.648;2022-09-04T01:59:43;12.13;;;11.33;;
9547;SDS011;4812;51.992;8.648;2022-09-04T02:02:20;12.60;;;11.70;;
9547;SDS011;4812;51.992;8.648;2022-09-04T02:04:53;11.40;;;10.60;;
9547;SDS011;4812;51.992;8.648;2022-09-04T02:07:31;11.47;;;10.63;;
9547;SDS011;4812;51.992;8.648;2022-09-04T02:10:09;12.00;;;11.20;;
9547;SDS011;4812;51.992;8.648;2022-09-04T02:12:56;13.13;;;12.03;;
9547;SDS011;4812;51.992;8.648;2022-09-04T02:15:33;12.27;;;11.37;;
9547;SDS011;4812;51.992;8.648;2022-09-04T02:18:06;13.43;;;12.43;;
9547;SDS011;4812;51.992;8.648;2022-09-04T02:20:38;13.60;;;11.80;;
9547;SDS011;4812;51.992;8.648;2022-09-04T02:23:11;12.67;;;11.87;;
9547;SDS011;4812;51.992;8.648;2022-09-04T02:25:43;12.40;;;11.60;;
9547;SDS011;4812;51.992;8.648;2022-09-04T02:28:20;12.53;;;11.63;;
9547;SDS011;4812;51.992;8.648;2022-09-04T02:30:55;13.40;;;12.50;;
9547;SDS011;4812;51.992;8.648;2022-09-04T02:33:28;13.20;;;12.20;;
9547;SDS011;4812;51.992;8.648;2022-09-04T02:36:04;13.73;;;12.83;;
9547;SDS011;4812;51.992;8.648;2022-09-04T02:38:37;13.83;;;12.90;;
9547;SDS011;4812;51.992;8.648;2022-09-04T02:41:10;14.30;;;13.27;;
9547;SDS011;4812;51.992;8.648;2022-09-04T02:43:49;13.83;;;12.90;;
9547;SDS011;4812;51.992;8.648;2022-09-04T02:46:26;13.73;;;12.83;;
9547;SDS011;4812;51.992;8.648;2022-09-04T02:49:00;14.60;;;13.60;;
9547;SDS011;4812;51.992;8.648;2022-09-04T02:51:37;14.43;;;13.43;;
9547;SDS011;4812;51.992;8.648;2022-09-04T02:54:20;14.37;;;13.37;;
9547;SDS011;4812;51.992;8.648;2022-09-04T02:56:57;14.53;;;13.53;;
9547;SDS011;4812;51.992;8.648;2022-09-04T02:59:40;15.00;;;13.80;;
9547;SDS011;4812;51.992;8.648;2022-09-04T03:02:16;14.50;;;13.40;;
9547;SDS011;4812;51.992;8.648;2022-09-04T03:04:47;14.23;;;13.13;;
9547;SDS011;4812;51.992;8.648;2022-09-04T03:07:17;14.00;;;13.00;;
9547;SDS011;4812;51.992;8.648;2022-09-04T03:09:50;13.10;;;12.27;;
9547;SDS011;4812;51.992;8.648;2022-09-04T03:12:24;13.17;;;12.27;;
9547;SDS011;4812;51.992;8.648;2022-09-04T03:15:02;13.20;;;12.30;;
9547;SDS011;4812;51.992;8.648;2022-09-04T03:17:35;13.07;;;12.17;;
9547;SDS011;4812;51.992;8.648;2022-09-04T03:20:08;14.33;;;13.10;;
9547;SDS011;4812;51.992;8.648;2022-09-04T03:22:40;13.53;;;12.63;;
9547;SDS011;4812;51.992;8.648;2022-09-04T03:25:24;13.20;;;12.20;;
9547;SDS011;4812;51.992;8.648;2022-09-04T03:27:56;13.57;;;12.67;;
9547;SDS011;4812;51.992;8.648;2022-09-04T03:30:25;14.07;;;13.07;;
9547;SDS011;4812;51.992;8.648;2022-09-04T03:32:56;14.07;;;13.17;;
9547;SDS011;4812;51.992;8.648;2022-09-04T03:35:31;13.93;;;12.77;;
9547;SDS011;4812;51.992;8.648;2022-09-04T03:38:06;13.50;;;12.60;;
9547;SDS011;4812;51.992;8.648;2022-09-04T03:40:39;13.87;;;12.97;;
9547;SDS011;4812;51.992;8.648;2022-09-04T03:43:14;14.37;;;13.37;;
9547;SDS011;4812;51.992;8.648;2022-09-04T03:45:53;14.10;;;13.10;;
9547;SDS011;4812;51.992;8.648;2022-09-04T03:48:31;13.83;;;12.83;;
9547;SDS011;4812;51.992;8.648;2022-09-04T03:51:08;14.23;;;13.10;;
9547;SDS011;4812;51.992;8.648;2022-09-04T03:53:39;13.93;;;12.83;;
9547;SDS011;4812;51.992;8.648;2022-09-04T03:56:15;13.97;;;12.97;;
9547;SDS011;4812;51.992;8.648;2022-09-04T03:58:57;14.40;;;13.23;;
9547;SDS011;4812;51.992;8.648;2022-09-04T04:01:32;13.47;;;12.57;;
9547;SDS011;4812;51.992;8.648;2022-09-04T04:07:21;13.90;;;12.83;;
9547;SDS011;4812;51.992;8.648;2022-09-04T04:09:57;13.80;;;12.80;;
9547;SDS011;4812;51.992;8.648;2022-09-04T04:16:00;14.33;;;13.30;;
9547;SDS011;4812;51.992;8.648;2022-09-04T04:18:39;14.20;;;13.00;;
9547;SDS011;4812;51.992;8.648;2022-09-04T04:21:17;13.37;;;12.47;;
9547;SDS011;4812;51.992;8.648;2022-09-04T04:24:02;13.83;;;12.93;;
9547;SDS011;4812;51.992;8.648;2022-09-04T04:26:43;14.27;;;12.77;;
9547;SDS011;4812;51.992;8.648;2022-09-04T04:29:39;15.13;;;14.03;;
9547;SDS011;4812;51.992;8.648;2022-09-04T04:32:17;15.43;;;14.27;;
9547;SDS011;4812;51.992;8.648;2022-09-04T04:35:03;15.53;;;14.33;;
9547;SDS011;4812;51.992;8.648;2022-09-04T04:37:39;15.53;;;14.47;;
9547;SDS011;4812;51.992;8.648;2022-09-04T04:40:18;15.23;;;14.23;;
9547;SDS011;4812;51.992;8.648;2022-09-04T04:42:53;16.00;;;14.70;;
9547;SDS011;4812;51.992;8.648;2022-09-04T04:45:26;16.17;;;15.07;;
9547;SDS011;4812;51.992;8.648;2022-09-04T04:48:20;14.97;;;13.97;;
9547;SDS011;4812;51.992;8.648;2022-09-04T04:51:00;16.33;;;15.03;;
9547;SDS011;4812;51.992;8.648;2022-09-04T04:53:33;16.07;;;14.97;;
9547;SDS011;4812;51.992;8.648;2022-09-04T04:56:07;16.27;;;15.17;;
9547;SDS011;4812;51.992;8.648;2022-09-04T04:58:49;15.67;;;14.57;;
9547;SDS011;4812;51.992;8.648;2022-09-04T05:01:28;17.03;;;15.63;;
9547;SDS011;4812;51.992;8.648;2022-09-04T05:04:05;16.73;;;15.37;;
9547;SDS011;4812;51.992;8.648;2022-09-04T05:06:40;16.40;;;15.20;;
9547;SDS011;4812;51.992;8.648;2022-09-04T05:09:13;16.07;;;14.87;;
9547;SDS011;4812;51.992;8.648;2022-09-04T05:11:47;15.60;;;14.50;;
9547;SDS011;4812;51.992;8.648;2022-09-04T05:14:27;15.27;;;14.27;;
9547;SDS011;4812;51.992;8.648;2022-09-04T05:17:04;15.83;;;14.73;;
9547;SDS011;4812;51.992;8.648;2022-09-04T05:19:37;16.33;;;14.93;;
9547;SDS011;4812;51.992;8.648;2022-09-04T05:22:13;16.20;;;14.90;;
9547;SDS011;4812;51.992;8.648;2022-09-04T05:24:47;16.43;;;15.27;;
9547;SDS011;4812;51.992;8.648;2022-09-04T05:27:38;16.37;;;15.13;;
9547;SDS011;4812;51.992;8.648;2022-09-04T05:30:11;16.57;;;15.03;;
9547;SDS011;4812;51.992;8.648;2022-09-04T05:32:43;16.07;;;14.73;;
9547;SDS011;4812;51.992;8.648;2022-09-04T05:35:19;16.47;;;15.00;;
9547;SDS011;4812;51.992;8.648;2022-09-04T05:38:03;17.60;;;16.00;;
9547;SDS011;4812;51.992;8.648;2022-09-04T05:40:37;17.63;;;16.23;;
9547;SDS011;4812;51.992;8.648;2022-09-04T05:43:19;16.70;;;15.40;;
9547;SDS011;4812;51.992;8.648;2022-09-04T05:45:55;17.67;;;16.07;;
9547;SDS011;4812;51.992;8.648;2022-09-04T05:48:29;17.37;;;15.80;;
9547;SDS011;4812;51.992;8.648;2022-09-04T05:51:06;17.07;;;15.53;;
9547;SDS011;4812;51.992;8.648;2022-09-04T05:57:05;15.80;;;14.40;;
9547;SDS011;4812;51.992;8.648;2022-09-04T06:03:02;16.13;;;14.67;;
9547;SDS011;4812;51.992;8.648;2022-09-04T06:05:38;14.90;;;13.60;;
9547;SDS011;4812;51.992;8.648;2022-09-04T06:08:17;15.50;;;14.10;;
9547;SDS011;4812;51.992;8.648;2022-09-04T06:10:58;15.40;;;14.27;;
9547;SDS011;4812;51.992;8.648;2022-09-04T06:13:34;14.77;;;13.77;;
9547;SDS011;4812;51.992;8.648;2022-09-04T06:16:24;14.13;;;13.13;;
9547;SDS011;4812;51.992;8.648;2022-09-04T06:19:04;14.87;;;13.73;;
9547;SDS011;4812;51.992;8.648;2022-09-04T06:24:57;14.80;;;13.50;;
9547;SDS011;4812;51.992;8.648;2022-09-04T06:27:42;14.47;;;13.57;;
9547;SDS011;4812;51.992;8.648;2022-09-04T06:30:23;14.90;;;13.80;;
9547;SDS011;4812;51.992;8.648;2022-09-04T06:32:56;15.97;;;14.67;;
9547;SDS011;4812;51.992;8.648;2022-09-04T06:35:37;15.90;;;14.90;;
9547;SDS011;4812;51.992;8.648;2022-09-04T06:38:16;15.57;;;14.67;;
9547;SDS011;4812;51.992;8.648;2022-09-04T06:40:55;16.87;;;15.70;;
9547;SDS011;4812;51.992;8.648;2022-09-04T06:43:31;17.70;;;16.60;;
9547;SDS011;4812;51.992;8.648;2022-09-04T06:46:06;18.40;;;17.20;;
9547;SDS011;4812;51.992;8.648;2022-09-04T06:48:44;18.70;;;17.40;;
9547;SDS011;4812;51.992;8.648;2022-09-04T06:51:20;18.73;;;17.53;;
9547;SDS011;4812;51.992;8.648;2022-09-04T06:53:55;19.60;;;18.20;;
9547;SDS011;4812;51.992;8.648;2022-09-04T06:56:32;19.93;;;18.53;;
9547;SDS011;4812;51.992;8.648;2022-09-04T07:02:22;20.67;;;19.17;;
9547;SDS011;4812;51.992;8.648;2022-09-04T07:05:02;21.00;;;19.50;;
9547;SDS011;4812;51.992;8.648;2022-09-04T07:07:37;20.70;;;19.30;;
9547;SDS011;4812;51.992;8.648;2022-09-04T07:10:11;20.50;;;19.10;;
9547;SDS011;4812;51.992;8.648;2022-09-04T07:12:46;19.80;;;18.40;;
9547;SDS011;4812;51.992;8.648;2022-09-04T07:18:29;20.17;;;18.73;;
9547;SDS011;4812;51.992;8.648;2022-09-04T07:21:09;19.70;;;18.30;;
9547;SDS011;4812;51.992;8.648;2022-09-04T07:23:39;16.20;;;15.10;;
9547;SDS011;4812;51.992;8.648;2022-09-04T07:26:13;15.63;;;14.63;;
9547;SDS011;4812;51.992;8.648;2022-09-04T07:28:52;15.87;;;14.97;;
9547;SDS011;4812;51.992;8.648;2022-09-04T07:31:28;15.47;;;14.30;;
9547;SDS011;4812;51.992;8.648;2022-09-04T07:34:00;15.60;;;14.33;;
9547;SDS011;4812;51.992;8.648;2022-09-04T07:36:30;15.50;;;14.60;;
9547;SDS011;4812;51.992;8.648;2022-09-04T07:39:03;15.13;;;14.23;;
9547;SDS011;4812;51.992;8.648;2022-09-04T07:41:40;15.07;;;14.17;;
9547;SDS011;4812;51.992;8.648;2022-09-04T07:44:13;15.20;;;14.30;;
9547;SDS011;4812;51.992;8.648;2022-09-04T07:46:51;15.50;;;14.48;;
9547;SDS011;4812;51.992;8.648;2022-09-04T07:49:28;15.43;;;14.27;;
9547;SDS011;4812;51.992;8.648;2022-09-04T07:51:59;15.50;;;14.60;;
9547;SDS011;4812;51.992;8.648;2022-09-04T07:54:37;16.25;;;15.20;;
9547;SDS011;4812;51.992;8.648;2022-09-04T07:57:21;15.97;;;14.97;;
9547;SDS011;4812;51.992;8.648;2022-09-04T08:00:21;15.27;;;14.45;;
9547;SDS011;4812;51.992;8.648;2022-09-04T08:02:55;15.15;;;14.27;;
9547;SDS011;4812;51.992;8.648;2022-09-04T08:05:44;15.05;;;14.15;;
9547;SDS011;4812;51.992;8.648;2022-09-04T08:11:11;14.90;;;14.00;;
9547;SDS011;4812;51.992;8.648;2022-09-04T08:13:50;15.32;;;14.10;;
9547;SDS011;4812;51.992;8.648;2022-09-04T08:16:37;15.48;;;14.32;;
9547;SDS011;4812;51.992;8.648;2022-09-04T08:19:16;16.80;;;15.80;;
9547;SDS011;4812;51.992;8.648;2022-09-04T08:21:50;14.60;;;13.80;;
9547;SDS011;4812;51.992;8.648;2022-09-04T08:24:27;15.00;;;14.20;;
9547;SDS011;4812;51.992;8.648;2022-09-04T08:27:03;15.25;;;14.18;;
9547;SDS011;4812;51.992;8.648;2022-09-04T08:29:41;15.05;;;14.05;;
9547;SDS011;4812;51.992;8.648;2022-09-04T08:32:49;14.68;;;13.85;;
9547;SDS011;4812;51.992;8.648;2022-09-04T08:35:27;15.80;;;14.60;;
9547;SDS011;4812;51.992;8.648;2022-09-04T08:38:01;15.30;;;14.30;;
9547;SDS011;4812;51.992;8.648;2022-09-04T08:40:44;15.07;;;14.18;;
9547;SDS011;4812;51.992;8.648;2022-09-04T08:46:33;15.20;;;14.30;;
9547;SDS011;4812;51.992;8.648;2022-09-04T08:52:25;14.85;;;14.05;;
9547;SDS011;4812;51.992;8.648;2022-09-04T08:55:14;15.13;;;14.23;;
9547;SDS011;4812;51.992;8.648;2022-09-04T08:57:57;14.70;;;13.80;;
9547;SDS011;4812;51.992;8.648;2022-09-04T09:00:50;15.15;;;14.15;;
9547;SDS011;4812;51.992;8.648;2022-09-04T09:03:34;15.07;;;14.20;;
9547;SDS011;4812;51.992;8.648;2022-09-04T09:06:33;15.02;;;14.13;;
9547;SDS011;4812;51.992;8.648;2022-09-04T09:18:09;14.95;;;14.05;;
9547;SDS011;4812;51.992;8.648;2022-09-04T09:20:52;14.50;;;13.60;;
9547;SDS011;4812;51.992;8.648;2022-09-04T09:23:29;15.20;;;14.05;;
9547;SDS011;4812;51.992;8.648;2022-09-04T09:26:11;14.52;;;13.73;;
9547;SDS011;4812;51.992;8.648;2022-09-04T09:32:44;15.35;;;14.52;;
9547;SDS011;4812;51.992;8.648;2022-09-04T09:35:46;15.68;;;14.60;;
9547;SDS011;4812;51.992;8.648;2022-09-04T09:38:59;15.30;;;14.30;;
9547;SDS011;4812;51.992;8.648;2022-09-04T09:44:39;14.57;;;13.77;;
9547;SDS011;4812;51.992;8.648;2022-09-04T09:47:44;14.63;;;13.75;;
9547;SDS011;4812;51.992;8.648;2022-09-04T09:50:39;14.10;;;13.30;;
9547;SDS011;4812;51.992;8.648;2022-09-04T09:56:35;14.40;;;13.60;;
9547;SDS011;4812;51.992;8.648;2022-09-04T10:02:34;14.68;;;13.88;;
9547;SDS011;4812;51.992;8.648;2022-09-04T10:11:40;14.30;;;13.50;;
9547;SDS011;4812;51.992;8.648;2022-09-04T10:14:19;13.95;;;13.10;;
9547;SDS011;4812;51.992;8.648;2022-09-04T10:20:35;14.02;;;13.07;;
9547;SDS011;4812;51.992;8.648;2022-09-04T10:23:20;14.25;;;13.25;;
9547;SDS011;4812;51.992;8.648;2022-09-04T10:25:57;14.93;;;13.85;;
9547;SDS011;4812;51.992;8.648;2022-09-04T10:31:42;12.45;;;11.80;;
9547;SDS011;4812;51.992;8.648;2022-09-04T10:37:32;14.10;;;13.18;;
9547;SDS011;4812;51.992;8.648;2022-09-04T10:40:23;13.93;;;13.23;;
9547;SDS011;4812;51.992;8.648;2022-09-04T10:43:13;13.93;;;13.15;;
9547;SDS011;4812;51.992;8.648;2022-09-04T10:45:53;14.20;;;13.40;;
9547;SDS011;4812;51.992;8.648;2022-09-04T10:48:42;13.65;;;12.85;;
9547;SDS011;4812;51.992;8.648;2022-09-04T10:51:43;14.45;;;13.48;;
9547;SDS011;4812;51.992;8.648;2022-09-04T10:54:33;13.38;;;12.75;;
9547;SDS011;4812;51.992;8.648;2022-09-04T10:57:26;13.82;;;13.10;;
9547;SDS011;4812;51.992;8.648;2022-09-04T11:00:04;13.80;;;13.10;;
9547;SDS011;4812;51.992;8.648;2022-09-04T11:02:49;13.52;;;12.82;;
9547;SDS011;4812;51.992;8.648;2022-09-04T11:05:56;14.07;;;13.38;;
9547;SDS011;4812;51.992;8.648;2022-09-04T11:08:55;13.95;;;13.25;;
9547;SDS011;4812;51.992;8.648;2022-09-04T11:11:36;14.23;;;13.48;;
9547;SDS011;4812;51.992;8.648;2022-09-04T11:14:17;13.88;;;13.10;;
9547;SDS011;4812;51.992;8.648;2022-09-04T11:17:00;14.32;;;13.48;;
9547;SDS011;4812;51.992;8.648;2022-09-04T11:20:05;14.10;;;13.30;;
9547;SDS011;4812;51.992;8.648;2022-09-04T11:26:18;13.50;;;12.80;;
9547;SDS011;4812;51.992;8.648;2022-09-04T11:29:18;13.55;;;12.85;;
9547;SDS011;4812;51.992;8.648;2022-09-04T11:32:01;13.52;;;12.77;;
9547;SDS011;4812;51.992;8.648;2022-09-04T11:34:57;13.60;;;12.90;;
9547;SDS011;4812;51.992;8.648;2022-09-04T11:37:53;13.27;;;12.57;;
9547;SDS011;4812;51.992;8.648;2022-09-04T11:40:49;13.95;;;13.25;;
9547;SDS011;4812;51.992;8.648;2022-09-04T11:43:44;14.20;;;13.40;;
9547;SDS011;4812;51.992;8.648;2022-09-04T11:46:27;14.15;;;13.45;;
9547;SDS011;4812;51.992;8.648;2022-09-04T11:49:10;14.05;;;13.27;;
9547;SDS011;4812;51.992;8.648;2022-09-04T11:52:01;14.27;;;13.57;;
9547;SDS011;4812;51.992;8.648;2022-09-04T11:54:35;14.18;;;13.27;;
9547;SDS011;4812;51.992;8.648;2022-09-04T11:57:16;13.38;;;12.68;;
9547;SDS011;4812;51.992;8.648;2022-09-04T12:00:05;14.13;;;13.32;;
9547;SDS011;4812;51.992;8.648;2022-09-04T12:05:31;14.00;;;13.20;;
9547;SDS011;4812;51.992;8.648;2022-09-04T12:08:15;14.43;;;13.52;;
9547;SDS011;4812;51.992;8.648;2022-09-04T12:10:52;14.00;;;13.25;;
9547;SDS011;4812;51.992;8.648;2022-09-04T12:13:40;13.77;;;13.07;;
9547;SDS011;4812;51.992;8.648;2022-09-04T12:22:41;13.50;;;12.70;;
9547;SDS011;4812;51.992;8.648;2022-09-04T12:37:58;13.75;;;12.98;;
9547;SDS011;4812;51.992;8.648;2022-09-04T12:40:39;12.85;;;12.18;;
9547;SDS011;4812;51.992;8.648;2022-09-04T12:43:18;13.40;;;12.70;;
9547;SDS011;4812;51.992;8.648;2022-09-04T12:45:53;13.10;;;12.40;;
9547;SDS011;4812;51.992;8.648;2022-09-04T12:48:30;13.18;;;12.48;;
9547;SDS011;4812;51.992;8.648;2022-09-04T12:51:05;13.55;;;12.85;;
9547;SDS011;4812;51.992;8.648;2022-09-04T12:53:41;13.30;;;12.70;;
9547;SDS011;4812;51.992;8.648;2022-09-04T12:56:19;13.25;;;12.55;;
9547;SDS011;4812;51.992;8.648;2022-09-04T12:58:56;12.80;;;12.10;;
9547;SDS011;4812;51.992;8.648;2022-09-04T13:01:45;13.27;;;12.57;;
9547;SDS011;4812;51.992;8.648;2022-09-04T13:04:22;12.93;;;12.23;;
9547;SDS011;4812;51.992;8.648;2022-09-04T13:06:59;13.38;;;12.68;;
9547;SDS011;4812;51.992;8.648;2022-09-04T13:09:43;13.45;;;12.75;;
9547;SDS011;4812;51.992;8.648;2022-09-04T13:12:21;13.25;;;12.55;;
9547;SDS011;4812;51.992;8.648;2022-09-04T13:15:07;12.45;;;11.75;;
9547;SDS011;4812;51.992;8.648;2022-09-04T13:17:46;13.00;;;12.40;;
9547;SDS011;4812;51.992;8.648;2022-09-04T13:20:22;13.18;;;12.48;;
9547;SDS011;4812;51.992;8.648;2022-09-04T13:22:58;13.10;;;12.40;;
9547;SDS011;4812;51.992;8.648;2022-09-04T13:25:39;12.65;;;11.90;;
9547;SDS011;4812;51.992;8.648;2022-09-04T13:28:18;13.10;;;12.40;;
9547;SDS011;4812;51.992;8.648;2022-09-04T13:30:51;13.18;;;12.48;;
9547;SDS011;4812;51.992;8.648;2022-09-04T13:33:27;13.15;;;12.45;;
9547;SDS011;4812;51.992;8.648;2022-09-04T13:36:10;13.00;;;12.30;;
9547;SDS011;4812;51.992;8.648;2022-09-04T13:44:49;12.88;;;12.23;;
9547;SDS011;4812;51.992;8.648;2022-09-04T13:47:23;12.60;;;11.90;;
9547;SDS011;4812;51.992;8.648;2022-09-04T13:49:59;12.98;;;12.20;;
9547;SDS011;4812;51.992;8.648;2022-09-04T13:52:35;13.15;;;12.48;;
9547;SDS011;4812;51.992;8.648;2022-09-04T13:55:11;13.60;;;12.70;;
9547;SDS011;4812;51.992;8.648;2022-09-04T13:57:41;13.63;;;12.88;;
9547;SDS011;4812;51.992;8.648;2022-09-04T14:00:13;13.43;;;12.73;;
9547;SDS011;4812;51.992;8.648;2022-09-04T14:02:42;13.57;;;12.88;;
9547;SDS011;4812;51.992;8.648;2022-09-04T14:05:10;13.80;;;12.95;;
9547;SDS011;4812;51.992;8.648;2022-09-04T14:07:40;13.48;;;12.77;;
9547;SDS011;4812;51.992;8.648;2022-09-04T14:10:12;13.65;;;12.95;;
9547;SDS011;4812;51.992;8.648;2022-09-04T14:12:53;13.55;;;12.85;;
9547;SDS011;4812;51.992;8.648;2022-09-04T14:15:32;13.90;;;13.20;;
9547;SDS011;4812;51.992;8.648;2022-09-04T14:18:13;13.55;;;12.73;;
9547;SDS011;4812;51.992;8.648;2022-09-04T14:20:48;13.50;;;12.77;;
9547;SDS011;4812;51.992;8.648;2022-09-04T14:23:30;13.50;;;12.80;;
9547;SDS011;4812;51.992;8.648;2022-09-04T14:26:06;13.60;;;12.80;;
9547;SDS011;4812;51.992;8.648;2022-09-04T14:28:41;13.10;;;12.50;;
9547;SDS011;4812;51.992;8.648;2022-09-04T14:31:14;13.73;;;12.93;;
9547;SDS011;4812;51.992;8.648;2022-09-04T14:33:49;13.07;;;12.40;;
9547;SDS011;4812;51.992;8.648;2022-09-04T14:36:25;13.60;;;12.90;;
9547;SDS011;4812;51.992;8.648;2022-09-04T14:39:06;12.95;;;12.32;;
9547;SDS011;4812;51.992;8.648;2022-09-04T14:41:48;12.88;;;12.27;;
9547;SDS011;4812;51.992;8.648;2022-09-04T14:44:38;13.13;;;12.43;;
9547;SDS011;4812;51.992;8.648;2022-09-04T14:47:16;12.77;;;12.18;;
9547;SDS011;4812;51.992;8.648;2022-09-04T14:49:50;13.00;;;12.30;;
9547;SDS011;4812;51.992;8.648;2022-09-04T14:52:21;13.50;;;12.43;;
9547;SDS011;4812;51.992;8.648;2022-09-04T14:54:50;13.00;;;12.40;;
9547;SDS011;4812;51.992;8.648;2022-09-04T14:57:22;13.10;;;12.40;;
9547;SDS011;4812;51.992;8.648;2022-09-04T14:59:56;12.80;;;12.20;;
9547;SDS011;4812;51.992;8.648;2022-09-04T15:02:30;12.68;;;11.98;;
9547;SDS011;4812;51.992;8.648;2022-09-04T15:05:01;12.40;;;11.80;;
9547;SDS011;4812;51.992;8.648;2022-09-04T15:07:47;13.00;;;12.38;;
9547;SDS011;4812;51.992;8.648;2022-09-04T15:10:18;12.32;;;11.73;;
9547;SDS011;4812;51.992;8.648;2022-09-04T15:12:52;12.60;;;11.90;;
9547;SDS011;4812;51.992;8.648;2022-09-04T15:15:27;12.75;;;12.00;;
9547;SDS011;4812;51.992;8.648;2022-09-04T15:17:58;12.57;;;11.77;;
9547;SDS011;4812;51.992;8.648;2022-09-04T15:20:35;13.07;;;12.38;;
9547;SDS011;4812;51.992;8.648;2022-09-04T15:23:06;12.77;;;12.15;;
9547;SDS011;4812;51.992;8.648;2022-09-04T15:25:45;12.63;;;12.02;;
9547;SDS011;4812;51.992;8.648;2022-09-04T15:28:27;12.48;;;11.80;;
9547;SDS011;4812;51.992;8.648;2022-09-04T15:31:06;12.93;;;12.27;;
9547;SDS011;4812;51.992;8.648;2022-09-04T15:33:41;13.27;;;12.57;;
9547;SDS011;4812;51.992;8.648;2022-09-04T15:36:13;13.10;;;12.30;;
9547;SDS011;4812;51.992;8.648;2022-09-04T15:38:47;12.68;;;12.07;;
9547;SDS011;4812;51.992;8.648;2022-09-04T15:41:17;12.95;;;12.27;;
9547;SDS011;4812;51.992;8.648;2022-09-04T15:43:53;13.30;;;12.60;;
9547;SDS011;4812;51.992;8.648;2022-09-04T15:46:26;12.73;;;12.13;;
9547;SDS011;4812;51.992;8.648;2022-09-04T15:49:02;13.60;;;12.80;;
9547;SDS011;4812;51.992;8.648;2022-09-04T15:51:50;12.63;;;12.02;;
9547;SDS011;4812;51.992;8.648;2022-09-04T15:54:27;12.85;;;12.25;;
9547;SDS011;4812;51.992;8.648;2022-09-04T15:57:00;13.45;;;12.75;;
9547;SDS011;4812;51.992;8.648;2022-09-04T15:59:37;13.10;;;12.50;;
9547;SDS011;4812;51.992;8.648;2022-09-04T16:02:14;13.20;;;12.60;;
9547;SDS011;4812;51.992;8.648;2022-09-04T16:04:48;13.15;;;12.48;;
9547;SDS011;4812;51.992;8.648;2022-09-04T16:07:32;13.40;;;12.70;;
9547;SDS011;4812;51.992;8.648;2022-09-04T16:10:10;14.05;;;13.35;;
9547;SDS011;4812;51.992;8.648;2022-09-04T16:12:44;13.48;;;12.77;;
9547;SDS011;4812;51.992;8.648;2022-09-04T16:15:19;13.93;;;13.23;;
9547;SDS011;4812;51.992;8.648;2022-09-04T16:17:51;14.20;;;13.40;;
9547;SDS011;4812;51.992;8.648;2022-09-04T16:20:21;13.85;;;13.15;;
9547;SDS011;4812;51.992;8.648;2022-09-04T16:22:54;13.68;;;12.98;;
9547;SDS011;4812;51.992;8.648;2022-09-04T16:25:26;13.98;;;13.18;;
9547;SDS011;4812;51.992;8.648;2022-09-04T16:27:56;14.00;;;13.30;;
9547;SDS011;4812;51.992;8.648;2022-09-04T16:30:31;13.85;;;13.15;;
9547;SDS011;4812;51.992;8.648;2022-09-04T16:33:02;13.93;;;13.23;;
9547;SDS011;4812;51.992;8.648;2022-09-04T16:35:46;14.70;;;13.80;;
9547;SDS011;4812;51.992;8.648;2022-09-04T16:38:15;13.85;;;13.15;;
9547;SDS011;4812;51.992;8.648;2022-09-04T16:40:50;13.90;;;13.18;;
9547;SDS011;4812;51.992;8.648;2022-09-04T16:43:22;13.40;;;12.60;;
9547;SDS011;4812;51.992;8.648;2022-09-04T16:45:57;13.45;;;12.55;;
9547;SDS011;4812;51.992;8.648;2022-09-04T16:48:32;13.68;;;12.98;;
9547;SDS011;4812;51.992;8.648;2022-09-04T16:51:06;13.55;;;12.80;;
9547;SDS011;4812;51.992;8.648;2022-09-04T16:53:59;13.77;;;12.85;;
9547;SDS011;4812;51.992;8.648;2022-09-04T16:56:33;13.60;;;12.90;;
9547;SDS011;4812;51.992;8.648;2022-09-04T16:59:14;13.30;;;12.60;;
9547;SDS011;4812;51.992;8.648;2022-09-04T17:01:50;13.60;;;12.90;;
9547;SDS011;4812;51.992;8.648;2022-09-04T17:04:26;13.40;;;12.60;;
9547;SDS011;4812;51.992;8.648;2022-09-04T17:06:59;13.10;;;12.40;;
9547;SDS011;4812;51.992;8.648;2022-09-04T17:09:33;13.00;;;12.40;;
9547;SDS011;4812;51.992;8.648;2022-09-04T17:12:17;13.77;;;12.77;;
9547;SDS011;4812;51.992;8.648;2022-09-04T17:14:50;13.60;;;12.70;;
9547;SDS011;4812;51.992;8.648;2022-09-04T17:17:20;13.43;;;12.73;;
9547;SDS011;4812;51.992;8.648;2022-09-04T17:19:58;13.63;;;12.93;;
9547;SDS011;4812;51.992;8.648;2022-09-04T17:22:28;13.43;;;12.73;;
9547;SDS011;4812;51.992;8.648;2022-09-04T17:25:22;13.47;;;12.67;;
9547;SDS011;4812;51.992;8.648;2022-09-04T17:28:29;13.77;;;12.87;;
9547;SDS011;4812;51.992;8.648;2022-09-04T17:31:23;13.27;;;12.50;;
9547;SDS011;4812;51.992;8.648;2022-09-04T17:33:56;13.60;;;12.67;;
9547;SDS011;4812;51.992;8.648;2022-09-04T17:36:47;13.53;;;12.73;;
9547;SDS011;4812;51.992;8.648;2022-09-04T17:39:37;13.80;;;12.83;;
9547;SDS011;4812;51.992;8.648;2022-09-04T17:42:30;13.40;;;12.70;;
9547;SDS011;4812;51.992;8.648;2022-09-04T17:45:09;13.47;;;12.77;;
9547;SDS011;4812;51.992;8.648;2022-09-04T17:47:41;13.70;;;13.00;;